Worst METAR reports worldwide for Flight Simulation

Thunderstorm

Station Wind Gust Vis(SM) Temp/Dew Baro
KTLH 21 28 1.5 25/24 30.03
KTLH 111748Z 27021G28KT 1 1/2SM TSRA BR SCT028CB BKN065 BKN180 25/24 A3003 RMK AO2 PK WND 27028/1747 WSHFT 1717 LTG DSNT S-NW RAB1657E06B36 FRQ LTGICCG OHD-SW-NW TS OHD-SW-NW MOV SE P0017 $
KSRC 17 23 8 25/21 29.99
KSRC 111756Z AUTO 32017G23KT 8SM +TSRA BKN041 OVC050 25/22 A2999 RMK AO2 LTG DSNT ALQDS RAB26 SLP152 P0008 60008 T02500217 10344 20233 55007
KOCF 15 20 7 26/22 30.04
KOCF 111751Z 35015G20KT 7SM -TSRA FEW033 BKN042 BKN049 26/23 A3004 RMK AO2 PK WND 32026/1739 LTG DSNT NW-E TSB10RAB44 SLP172 P0000 60000 T02610228 10339 20244 56010 $
KPOF 10 20 10 22/20 30.04
KPOF 111753Z AUTO 29010G20KT 10SM -TSRA FEW034 SCT065 BKN110 22/20 A3004 RMK AO2 LTG DSNT ALQDS TSE14B52 SLP169 P0003 60017 T02220200 10272 20217 51011
CYPQ 12 19 9 25/21 29.80
CYPQ 111748Z AUTO 22012G19KT 9SM -RA VCTS SCT026 BKN039 BKN055 OVC066 25/21 A2980 RMK LTNG DIST N NW SLP091 DENSITY ALT 2000FT

Station Wind Gust Vis(SM) Temp/Dew Baro
KEWN 9 18 10 26/21 30.02
KEWN 111754Z 24009G18KT 10SM VCTS BKN031 BKN055 OVC090 26/21 A3002 RMK AO2 LTG DSNT ALQDS SLP165 60002 T02610211 10322 20261 55001
K2DP 9 16 10 30/26 29.99
K2DP 111756Z AUTO 18009G16KT 10SM VCTS FEW030 31/26 A2999 RMK AO2 SLPNO 60012 T03090263 10310 20225 57012 $
LFRN 16 6.21 30/15 29.88
LFRN 111730Z AUTO 14016KT 9999 TS ///CB 30/15 Q1012 TEMPO VRB20G40KT 3000 TSRAGR
DATM 16 0.62 40/12 29.73
DATM 111700Z 18016KT 1000 -TS DRSA FEW040CB SCT100 40/12 Q1007
LFCR 13 6.21 31/17 29.97
LFCR 111730Z AUTO 17013KT 140V200 9999 VCTS ///CB 31/17 Q1015 TEMPO VRB20G30KT 4000 TSRA
LIPA 12 1.86 20/20 30.03
LIPA 111655Z 32012KT 3000 -TSRA BR FEW025CB SCT030 BKN050 20/20 Q1017 RMK OVC VIS MIN 1800SW WIND THR05 /////KT WIND THR23 /////KT A3006 YLO
KSRQ 12 10 30/22 30.02
KSRQ 111753Z 16012KT 10SM TS FEW120 31/23 A3002 RMK AO2 LTG DSNT SE TSB12E49B51 SLP165 T03060228 10339 20272 58007
GMTA 12 4.97 30/21 29.82
GMTA 111700Z 32012KT 8000 TS FEW020 FEW033CB BKN100 30/21 Q1010 NOSIG
SARC 12 6.21 14/0 30.06
SARC 111700Z 18012KT 9999 TS FEW025 FEW045CB OVC050 14/M00 Q1018 RMK CB OBS TO SE
LEAB 12 6.21 30/9 29.88
LEAB 111730Z 15012KT 110V180 9999 TS SCT060CB 30/09 Q1012 NOSIG
KJSV 11 10 22/20 30.05
KJSV 111755Z AUTO 30011KT 10SM -TSRA BKN055 BKN075 22/20 A3005 RMK AO2 P0003 LTG DSNT ALQS
KGZL 10 9 22/19 30.02
KGZL 111755Z AUTO 09010KT 9SM VCTS SCT036 OVC047 22/19 A3002 RMK AO2 LTG DSNT ALQDS P0018
ETNN 9 6.21 25/20 29.94
ETNN 111720Z 20009KT 9999 VCTS SCT060CB BKN120 25/20 Q1014 BLU
VICG 9 2.49 28/28 29.53
VICG 111730Z 05009KT 4000 BRTS SCT025 FEW030CB BKN090 28/28 Q1000 TEMPO TSRA
KORG 9 10 31/23 30.05
KORG 111755Z AUTO 26009KT 10SM TS BKN036 BKN042 BKN050 31/24 A3005 RMK AO2 LTG DSNT SW 60001 T03120237 10340 20245
KMLB 9 10 31/25 30.03
KMLB 111736Z 08009KT 10SM VCTS CLR 32/25 A3003 RMK AO2 T03170250
K17J 8 10 30/26 30.00
K17J 111755Z AUTO 14008KT 10SM VCTS BKN031 BKN048 31/27 A3000 RMK AO2 LTG DSNT SE THRU W T03080265 10338 20233
LFBC 8 6.21 25/18 29.85
LFBC 111730Z AUTO 33008KT 300V360 9999 TS ///CB 25/18 Q1011
KMJX 8 10 28/24 29.97
KMJX 111753Z AUTO 19008KT 10SM VCTS -RA FEW029 BKN038 BKN046 29/24 A2997 RMK AO2 LTG DSNT NW TSB52RAB36 SLP152 P0000 60000 T02890244 10322 20233 58013
KMEZ 7 10 27/21 30.02
KMEZ 111755Z AUTO 26007KT 10SM VCTS CLR 27/21 A3002 RMK AO2 LTG DSNT SW THRU NE
LZIB 7 6.21 21/17 30.06
LZIB 111730Z 33007KT 300V070 9999 -SHRA VCTS SCT046CB BKN100 21/17 Q1018 BECMG NSW
K4M9 7 10 24/24 30.02
K4M9 111755Z AUTO 02007KT 10SM VCTS CLR 24/24 A3002 RMK AO2 LTG DSNT ALQDS PWINO
KDHN 7 10 34/25 30.03
KDHN 111735Z 33007KT 10SM VCTS CLR 34/26 A3003 RMK AO2 LTG DSNT NE AND SE AND NW T03440256
KSEM 7 9 33/24 30.01
KSEM 111755Z AUTO 30007KT 9SM VCTS FEW039 SCT050 SCT075 33/24 A3001 RMK AO2 LTG DSNT ALQDS
KECP 7 10 32/26 30.03
KECP 111653Z 19007KT 10SM VCTS SCT017 SCT030 33/27 A3003 RMK AO2 LTG DSNT NW SLP178 T03280267
EBAW 7 6.21 31/15 29.91
EBAW 111750Z 07007KT 9999 VCTS SCT070CB 31/15 Q1013 TEMPO VRB18G33KT 3000 TSRAGR
KFXE 7 10 32/22 30.04
KFXE 111753Z 07007KT 10SM VCTS FEW040 FEW080 32/23 A3004 RMK AO2 TSE50 SLP174 6//// T03220228 10328 20244 58002
EHGR 7 6.21 28/17 29.91
EHGR 111755Z AUTO 10007KT 350V140 9999 TS FEW046CB SCT075 OVC100 28/17 Q1013 BLU
LFBZ 7 6.21 24/21 29.91
LFBZ 111730Z AUTO 25007KT 210V280 9999 -TSRA FEW036/// SCT100/// BKN150/// ///CB 24/21 Q1013 TEMPO 26018G40KT 3000 TSRA BECMG NSC
KPBI 7 10 31/24 30.04
KPBI 111753Z 12007KT 10SM TS SCT031CB SCT080 BKN250 32/24 A3004 RMK AO2 LTG DSNT S TSE23B42 SLP173 OCNL LTGICCG SW TS SW MOV W CB DSNT S-SW 60000 T03170244 10317 20272 58004
KVNC 7 9 32/25 30.04
KVNC 111755Z AUTO 25007KT 9SM VCTS CLR 32/25 A3004 RMK AO2 LTG DSNT N AND NE
UKDD 6 6.21 21/15 29.88
UKDD 111700Z 03003MPS 9999 VCTS SCT028CB 21/15 Q1012 R08/090070 TEMPO VRB09G14MPS 2100 -TSRA BKN025CB
EHWO 6 6.21 31/20 29.88
EHWO 111755Z AUTO 36006KT 270V040 9999 TS FEW047CB OVC320 31/20 Q1012 BLU
FZNA 6 2.49 23/16 30.09
FZNA 111700Z 05006KT 4000 TS SCT018 FEW020CB BKN100 23/16 Q1019 NOSIG
RJNK 6 4.97 26/26 29.94
RJNK 111700Z 20006KT 8000 -TSRA FEW008 SCT020 BKN030 SCT030CB 26/26 Q1014
LEGT 6 6.21 18/16 30.06
LEGT 111730Z 05006KT 020V120 9999 -TSRA SCT020 SCT040CB 18/16 Q1018
LEAO 6 6.21 17/16 29.91
LEAO 111730Z 36006KT 300V060 9999 VCTS FEW049CB 17/16 Q1013 RERA
KFWB 6 7 21/21 30.07
KFWB 111755Z AUTO 34006KT 7SM VCTS FEW003 FEW034 BKN060 21/21 A3007 RMK AO2 LTG DSNT ALQDS P0029
KLUA 5 10 32/17 29.97
KLUA 111755Z AUTO 19005KT 10SM VCTS CLR 32/17 A2997 RMK AO2 LTG DSNT SE
KTPA 5 10 31/22 30.04
KTPA 111753Z 26005KT 10SM TS SCT045CB BKN110 BKN250 32/22 A3004 RMK AO2 LTG DSNT E AND W AND NW RAE18 TSE18E25B38 SLP172 OCNL LTGICCG VC NW-E TS VC NW-E MOV SE CB DSNT SE VCSH NW P0000 60028 T03170222 10322 20256
EBLG 5 6.21 28/17 29.94
EBLG 111750Z 03005KT 9999 VCTS SCT070CB 28/17 Q1014 NOSIG
KBCT 5 10 31/24 30.05
KBCT 111747Z 08005KT 10SM VCTS SCT025 31/24 A3005 RMK LTG DSNT SW-NW.
KWRI 5 8 23/22 29.98
KWRI 111756Z 35005KT 8SM -TSRA SCT012 SCT030CB 24/22 A2998 RMK AO2A PK WND 26028/21 RAB16 TSB19 SLP151 P0057 60057 T02370221 10313 20228 55010 $
KBBG 5 2.5 20/20 30.08
KBBG 111745Z 07005KT 2 1/2SM -VCTSRA FEW005 SCT033 BKN038 20/20 A3008 RMK LTG DSNT ALQDS
KBGE 5 10 29/25 30.03
KBGE 111755Z AUTO 19005KT 10SM VCTS BKN065 29/26 A3003 RMK AO2 LTG DSNT SE THRU SW T02940257 10309 20238 60013